createdAt,value
2023-03-23T15:58:45.256Z,16.86
2023-03-23T16:01:48.648Z,16.67
2023-03-23T16:04:52.851Z,16.67
2023-03-23T16:07:56.324Z,16.56
2023-03-23T16:11:00.213Z,16.57
2023-03-23T16:14:04.413Z,16.87
2023-03-23T16:17:07.596Z,16.23
2023-03-23T16:20:15.550Z,15.90
2023-03-23T16:23:18.322Z,15.41
2023-03-23T16:26:21.216Z,15.47
2023-03-23T16:29:40.556Z,15.60
2023-03-23T16:32:48.311Z,15.46
2023-03-23T16:35:52.617Z,15.13
2023-03-23T16:38:55.379Z,15.00
2023-03-23T16:41:58.239Z,14.77
2023-03-23T16:45:02.313Z,14.87
2023-03-23T16:48:05.686Z,14.90
2023-03-23T16:51:09.096Z,14.67
2023-03-23T16:54:11.861Z,14.53
2023-03-23T16:57:14.787Z,14.60
2023-03-23T17:00:21.943Z,14.48
2023-03-23T17:03:24.836Z,14.44
2023-03-23T17:06:28.085Z,14.35
2023-03-23T17:09:30.839Z,14.38
2023-03-23T17:12:33.985Z,14.32
2023-03-23T17:15:39.556Z,14.26
2023-03-23T17:18:42.513Z,14.24
2023-03-23T17:21:45.341Z,14.20
2023-03-23T17:24:48.632Z,14.12
2023-03-23T17:27:51.995Z,14.12
2023-03-23T17:30:56.326Z,14.11
2023-03-23T17:33:59.274Z,14.13
2023-03-23T17:37:02.057Z,14.01
2023-03-23T17:40:08.293Z,13.87
2023-03-23T17:43:11.062Z,13.62
2023-03-23T17:46:15.371Z,13.44
2023-03-23T17:49:18.301Z,13.64
2023-03-23T17:52:21.069Z,13.46
2023-03-23T17:55:23.780Z,13.47
2023-03-23T17:58:27.075Z,13.28
2023-03-23T18:01:31.204Z,13.39
2023-03-23T18:04:34.401Z,13.32
2023-03-23T18:07:37.694Z,13.27
2023-03-23T18:10:42.115Z,13.29
2023-03-23T18:13:44.847Z,13.23
2023-03-23T18:16:49.275Z,13.18
2023-03-23T18:19:52.189Z,13.14
2023-03-23T18:22:55.427Z,13.18
2023-03-23T18:25:58.150Z,13.13
2023-03-23T18:29:01.164Z,13.16
2023-03-23T18:32:07.188Z,13.16
2023-03-23T18:35:11.955Z,13.16
2023-03-23T18:38:15.175Z,13.24
2023-03-23T18:41:19.634Z,13.29
2023-03-23T18:44:22.484Z,13.21
2023-03-23T18:47:27.115Z,13.19
2023-03-23T18:50:29.964Z,13.28
2023-03-23T18:53:33.112Z,13.21
2023-03-23T18:56:35.916Z,13.14
2023-03-23T18:59:39.082Z,12.94
2023-03-23T19:02:43.278Z,12.97
2023-03-23T19:05:47.148Z,13.00
2023-03-23T19:08:51.936Z,13.00
2023-03-23T19:11:54.739Z,13.10
2023-03-23T19:14:57.552Z,12.96
2023-03-23T19:18:01.646Z,12.98
2023-03-23T19:24:11.131Z,12.92
2023-03-23T19:27:13.812Z,12.90
2023-03-23T19:30:16.519Z,12.87
2023-03-23T19:33:20.878Z,12.80
2023-03-23T19:36:24.892Z,12.83
2023-03-23T19:39:28.029Z,12.84
2023-03-23T19:42:31.180Z,12.96
2023-03-23T19:45:34.181Z,12.95
2023-03-23T19:48:39.708Z,12.88
2023-03-23T19:51:42.781Z,12.90
2023-03-23T19:54:46.076Z,12.93
2023-03-23T19:57:50.510Z,12.92
2023-03-23T20:00:53.286Z,12.91
2023-03-23T20:04:00.026Z,12.98
2023-03-23T20:07:05.912Z,12.93
2023-03-23T20:10:10.188Z,13.02
2023-03-23T20:13:13.016Z,13.02
2023-03-23T20:16:16.846Z,13.09
2023-03-23T20:19:21.492Z,12.96
2023-03-23T20:22:24.370Z,12.82
2023-03-23T20:25:27.363Z,12.93
2023-03-23T20:28:30.118Z,12.92
2023-03-23T20:31:36.730Z,12.96
2023-03-23T20:34:41.107Z,12.93
2023-03-23T20:37:44.493Z,12.91
2023-03-23T20:40:48.026Z,12.94
2023-03-23T20:43:51.260Z,12.93
2023-03-23T20:46:54.944Z,12.93
2023-03-23T20:50:00.167Z,12.93
2023-03-23T20:53:03.268Z,12.99
2023-03-23T20:56:08.748Z,12.98
2023-03-23T20:59:12.403Z,12.83
2023-03-23T21:02:18.204Z,12.79
2023-03-23T21:05:22.448Z,12.74
2023-03-23T21:08:25.749Z,12.75
2023-03-23T21:11:30.061Z,12.74
2023-03-23T21:14:33.123Z,12.69
2023-03-23T21:17:35.934Z,12.70
2023-03-23T21:20:40.528Z,12.66
2023-03-23T21:23:46.638Z,12.68
2023-03-23T21:26:50.090Z,12.65
2023-03-23T21:29:57.141Z,12.60
2023-03-23T21:33:00.098Z,12.59
2023-03-23T21:36:04.570Z,12.52
2023-03-23T21:39:08.011Z,12.45
2023-03-23T21:42:13.569Z,12.38
2023-03-23T21:45:20.866Z,12.42
2023-03-23T21:48:25.102Z,12.64
2023-03-23T21:51:30.142Z,13.00
2023-03-23T21:54:34.372Z,13.23
2023-03-23T21:57:37.763Z,13.35
2023-03-23T22:00:41.448Z,13.17
2023-03-23T22:03:44.892Z,13.07
2023-03-23T22:06:49.674Z,13.11
2023-03-23T22:09:53.422Z,12.90
2023-03-23T22:12:56.982Z,12.90
2023-03-23T22:16:01.871Z,12.97
2023-03-23T22:19:05.277Z,12.95
2023-03-23T22:22:09.488Z,12.94
2023-03-23T22:25:13.466Z,12.91
2023-03-23T22:28:16.646Z,13.03
2023-03-23T22:31:22.051Z,12.91
2023-03-23T22:34:25.078Z,12.79
2023-03-23T22:37:29.281Z,12.77
2023-03-23T22:40:32.842Z,12.72
2023-03-23T22:43:36.703Z,12.79
2023-03-23T22:46:39.676Z,12.77
2023-03-23T22:49:42.617Z,12.62
2023-03-23T22:52:46.776Z,12.62
2023-03-23T22:55:51.972Z,12.67
2023-03-23T22:58:55.167Z,12.56
2023-03-23T23:01:57.926Z,12.65
2023-03-23T23:05:00.829Z,12.54
2023-03-23T23:08:05.009Z,12.48
2023-03-23T23:11:11.078Z,12.49
2023-03-23T23:14:13.941Z,12.38
2023-03-23T23:17:17.001Z,12.35
2023-03-23T23:20:20.137Z,12.24
2023-03-23T23:23:25.567Z,12.19
2023-03-23T23:26:28.680Z,12.12
2023-03-23T23:29:31.626Z,11.94
2023-03-23T23:32:36.328Z,11.83
2023-03-23T23:35:40.762Z,11.65
2023-03-23T23:38:45.116Z,11.74
2023-03-23T23:41:48.225Z,11.84
2023-03-23T23:44:51.102Z,11.74
2023-03-23T23:47:54.160Z,11.71
2023-03-23T23:50:57.087Z,11.92
2023-03-23T23:54:01.975Z,12.07
2023-03-23T23:57:06.258Z,12.08
